Archival Weather

Ambodedjo

Ambodedjo, Mali (GAMB)

Report from: Wednesday, December 6, 2023 7:00 AM GMT
Current time: Friday, February 23, 2024 8:36 PM GMT

Current weather – Weather history – Daily summaries
Weather forecast

Temperature18.0°C (64.4°F)
Dew point9.0°C (48.2°F)
Winds 4 kts (2.1 m/s, 4.6 mph) Northeast (40°)
Clouds Sky clear
Altimeter29.94 in.Hg (1014 mB)
Relative humidity56 %
Density altitude491 ft. (150 m)
Remarks Ceiling and visibility OK
Flight conditions Visual Meteorological Conditions
Raw dataGAMB 060700Z 04004KT CAVOK 18/09 Q1014
An error has occurred. This application may no longer respond until reloaded. Reload 🗙